Hauptseite
METAR-TAF:

METAR-TAF

Flughäfen :

Heringsdorf, Deutschland

Flughafen Heringsdorf

Breite: 53-53N, Länge: 014-09E, Höhe: 28 m

Beobachtung

Neuester Wetterbericht von vor 24 Minuten, um 06:20 UTC
Wind 11 kt aus Süd/Südost
Temperatur 12°C
Luftfeuchtigkeit 88%
Luftdruck 1013 hPa
Sichtweite: 3600 m
Durchbrochene Bewölkung in der Höhe von 600 ft
feuchter Dunst

METAR: EDAH 200620Z 16011KT 3600 BR BKN006 12/10 Q1013

Zeit: 08:44 (06:44 UTC)

Prognose

Neuester Wetterbericht von vor 13 Stunden und 44 Minuten, um 17:00 UTC
Gültige Prognose vom 19 um 18 UTC bis 20 um 03 UTC
Wind 7 kt aus Ost
Sichtweite 10 km oder mehr
keine Wolken unter 1500 m und keine Kumulonimbus oder Gewitterwolken

TAF: EDAH 191700Z 1918/2003 09007KT CAVOK

Wetterbeobachtungen und Prognosen von mehr als 4000 Flughäfen (METAR und TAF Bericht).

Die verfügbaren Stationen werden durch gelbe und rote Markierungen auf der Karte dargestellt.

Führen Sie die Maus auf sie, um den Namen der Station zu sehen.

Darauf klicken, um die Beobachtung von Wetterbeobachtungen und Prognosen zu sehen.

Um die Karte zu ändern : klicken Sie auf den grünen Tasten mit einem schwarzen Kreuz Zum Vergrößern, auf den grünen Button mit einem Gedankenstrich zu verkleinern, oder auf die grünen Pfeile für benachbarte Karten.


METAR-TAF: